Port Alto, Texas
Current Conditions -  °F | °C
As of 5:55 AM on Friday 31 Oct 2014 (Local Time) from KPKV Reporting Station
Broken Clouds Broken Clouds  
Wind Chill: 66°   Ceiling: 11000
Heat Index: 66°   Visibility: 10mi
Dew Point: 64°   Wind: 6mph
Humidity: 91%   Direction: 10°N
Pressure: 30.12"   Gusts: NA
Location:  28.5342°N, 96.663°W
Report Text: KPKV 311055Z AUTO 01005KT 10SM SCT060 SCT075 BKN110 19/18 A3012 RMK AO2 T01900175
Loading
Personal Weather Stations






























Interactive Weather Map
Tropical Storm Tracking
New forecast layout! Learn more

10-Day Weather Forecast

Advertisements
Track Severe Weather on mobile